sensor_id;sensor_type;location;lat;lon;timestamp;temperature;humidity
12413;DHT22;13877;18.896;-99.222;2023-09-12T00:00:36;26.80;92.30
12413;DHT22;13877;18.896;-99.222;2023-09-12T00:03:02;26.80;92.80
12413;DHT22;13877;18.896;-99.222;2023-09-12T00:05:28;26.70;91.70
12413;DHT22;13877;18.896;-99.222;2023-09-12T00:07:55;26.50;92.30
12413;DHT22;13877;18.896;-99.222;2023-09-12T00:10:21;26.20;93.10
12413;DHT22;13877;18.896;-99.222;2023-09-12T00:12:47;25.90;93.00
12413;DHT22;13877;18.896;-99.222;2023-09-12T00:15:14;25.70;93.10
12413;DHT22;13877;18.896;-99.222;2023-09-12T00:17:40;25.50;92.90
12413;DHT22;13877;18.896;-99.222;2023-09-12T00:20:07;25.20;92.80
12413;DHT22;13877;18.896;-99.222;2023-09-12T00:22:34;24.90;93.40
12413;DHT22;13877;18.896;-99.222;2023-09-12T00:25:00;24.60;93.50
12413;DHT22;13877;18.896;-99.222;2023-09-12T00:27:26;24.40;93.90
12413;DHT22;13877;18.896;-99.222;2023-09-12T00:29:53;24.20;94.50
12413;DHT22;13877;18.896;-99.222;2023-09-12T00:32:19;24.10;94.30
12413;DHT22;13877;18.896;-99.222;2023-09-12T00:34:45;24.00;94.20
12413;DHT22;13877;18.896;-99.222;2023-09-12T00:37:12;23.90;94.60
12413;DHT22;13877;18.896;-99.222;2023-09-12T00:39:39;23.80;94.20
12413;DHT22;13877;18.896;-99.222;2023-09-12T00:42:05;23.70;94.60
12413;DHT22;13877;18.896;-99.222;2023-09-12T00:44:33;23.70;93.80
12413;DHT22;13877;18.896;-99.222;2023-09-12T00:47:00;23.70;94.10
12413;DHT22;13877;18.896;-99.222;2023-09-12T00:49:27;23.50;93.40
12413;DHT22;13877;18.896;-99.222;2023-09-12T00:51:54;23.50;93.60
12413;DHT22;13877;18.896;-99.222;2023-09-12T00:54:22;23.40;93.20
12413;DHT22;13877;18.896;-99.222;2023-09-12T00:56:48;23.30;92.60
12413;DHT22;13877;18.896;-99.222;2023-09-12T00:59:15;23.20;92.80
12413;DHT22;13877;18.896;-99.222;2023-09-12T01:01:44;23.20;91.80
12413;DHT22;13877;18.896;-99.222;2023-09-12T01:04:10;23.20;91.20
12413;DHT22;13877;18.896;-99.222;2023-09-12T01:06:37;23.20;92.10
12413;DHT22;13877;18.896;-99.222;2023-09-12T01:09:04;23.20;92.70
12413;DHT22;13877;18.896;-99.222;2023-09-12T01:11:30;23.10;93.00
12413;DHT22;13877;18.896;-99.222;2023-09-12T01:13:57;23.00;93.50
12413;DHT22;13877;18.896;-99.222;2023-09-12T01:16:23;22.80;94.00
12413;DHT22;13877;18.896;-99.222;2023-09-12T01:18:50;22.80;94.90
12413;DHT22;13877;18.896;-99.222;2023-09-12T01:23:55;22.80;96.20
12413;DHT22;13877;18.896;-99.222;2023-09-12T01:26:30;22.70;96.80
12413;DHT22;13877;18.896;-99.222;2023-09-12T01:29:02;22.50;97.40
12413;DHT22;13877;18.896;-99.222;2023-09-12T01:31:30;22.40;98.20
12413;DHT22;13877;18.896;-99.222;2023-09-12T01:33:57;22.20;98.50
12413;DHT22;13877;18.896;-99.222;2023-09-12T01:36:23;22.20;99.20
12413;DHT22;13877;18.896;-99.222;2023-09-12T01:38:50;22.40;99.90
12413;DHT22;13877;18.896;-99.222;2023-09-12T01:41:16;22.40;99.90
12413;DHT22;13877;18.896;-99.222;2023-09-12T01:43:42;22.60;99.90
12413;DHT22;13877;18.896;-99.222;2023-09-12T01:46:09;22.70;99.90
12413;DHT22;13877;18.896;-99.222;2023-09-12T01:48:37;22.50;99.90
12413;DHT22;13877;18.896;-99.222;2023-09-12T01:51:04;22.40;99.90
12413;DHT22;13877;18.896;-99.222;2023-09-12T01:53:32;22.30;99.90
12413;DHT22;13877;18.896;-99.222;2023-09-12T01:55:59;22.30;99.90
12413;DHT22;13877;18.896;-99.222;2023-09-12T01:58:26;22.30;99.90
12413;DHT22;13877;18.896;-99.222;2023-09-12T02:00:52;22.30;99.90
12413;DHT22;13877;18.896;-99.222;2023-09-12T02:03:21;22.20;99.90
12413;DHT22;13877;18.896;-99.222;2023-09-12T02:05:47;22.50;99.90
12413;DHT22;13877;18.896;-99.222;2023-09-12T02:08:14;22.60;99.90
12413;DHT22;13877;18.896;-99.222;2023-09-12T02:10:40;22.70;99.90
12413;DHT22;13877;18.896;-99.222;2023-09-12T02:13:07;22.60;99.90
12413;DHT22;13877;18.896;-99.222;2023-09-12T02:15:33;22.60;99.90
12413;DHT22;13877;18.896;-99.222;2023-09-12T02:18:00;22.60;99.90
12413;DHT22;13877;18.896;-99.222;2023-09-12T02:20:26;22.60;99.90
12413;DHT22;13877;18.896;-99.222;2023-09-12T02:22:52;22.70;99.90
12413;DHT22;13877;18.896;-99.222;2023-09-12T02:25:19;22.70;99.90
12413;DHT22;13877;18.896;-99.222;2023-09-12T02:27:47;22.70;99.90
12413;DHT22;13877;18.896;-99.222;2023-09-12T02:30:14;22.60;99.90
12413;DHT22;13877;18.896;-99.222;2023-09-12T02:32:43;22.70;99.90
12413;DHT22;13877;18.896;-99.222;2023-09-12T02:35:10;22.70;99.90
12413;DHT22;13877;18.896;-99.222;2023-09-12T02:37:36;22.70;99.90
12413;DHT22;13877;18.896;-99.222;2023-09-12T02:40:03;22.50;99.90
12413;DHT22;13877;18.896;-99.222;2023-09-12T02:42:31;22.40;99.90
12413;DHT22;13877;18.896;-99.222;2023-09-12T02:44:58;22.10;99.90
12413;DHT22;13877;18.896;-99.222;2023-09-12T02:47:24;21.90;99.90
12413;DHT22;13877;18.896;-99.222;2023-09-12T02:49:50;21.70;99.90
12413;DHT22;13877;18.896;-99.222;2023-09-12T02:52:17;21.60;99.90
12413;DHT22;13877;18.896;-99.222;2023-09-12T02:54:43;21.60;99.90
12413;DHT22;13877;18.896;-99.222;2023-09-12T02:57:10;21.40;99.90
12413;DHT22;13877;18.896;-99.222;2023-09-12T02:59:36;21.50;99.90
12413;DHT22;13877;18.896;-99.222;2023-09-12T03:02:02;21.40;99.90
12413;DHT22;13877;18.896;-99.222;2023-09-12T03:04:29;21.50;99.90
12413;DHT22;13877;18.896;-99.222;2023-09-12T03:06:56;21.50;99.90
12413;DHT22;13877;18.896;-99.222;2023-09-12T03:09:23;21.60;99.90
12413;DHT22;13877;18.896;-99.222;2023-09-12T03:11:50;21.60;99.90
12413;DHT22;13877;18.896;-99.222;2023-09-12T03:14:16;21.50;99.90
12413;DHT22;13877;18.896;-99.222;2023-09-12T03:16:42;21.40;99.90
12413;DHT22;13877;18.896;-99.222;2023-09-12T03:19:09;21.50;99.90
12413;DHT22;13877;18.896;-99.222;2023-09-12T03:21:36;21.40;99.90
12413;DHT22;13877;18.896;-99.222;2023-09-12T03:24:02;21.40;99.90
12413;DHT22;13877;18.896;-99.222;2023-09-12T03:26:29;21.40;99.90
12413;DHT22;13877;18.896;-99.222;2023-09-12T03:28:55;21.30;99.90
12413;DHT22;13877;18.896;-99.222;2023-09-12T03:31:22;21.20;99.90
12413;DHT22;13877;18.896;-99.222;2023-09-12T03:33:49;21.10;99.90
12413;DHT22;13877;18.896;-99.222;2023-09-12T03:36:17;21.00;99.90
12413;DHT22;13877;18.896;-99.222;2023-09-12T03:38:44;21.30;99.90
12413;DHT22;13877;18.896;-99.222;2023-09-12T03:41:11;21.30;99.90
12413;DHT22;13877;18.896;-99.222;2023-09-12T03:43:38;21.30;99.90
12413;DHT22;13877;18.896;-99.222;2023-09-12T03:46:04;21.20;99.90
12413;DHT22;13877;18.896;-99.222;2023-09-12T03:48:30;21.00;99.90
12413;DHT22;13877;18.896;-99.222;2023-09-12T03:50:58;20.90;99.90
12413;DHT22;13877;18.896;-99.222;2023-09-12T03:53:24;20.80;99.90
12413;DHT22;13877;18.896;-99.222;2023-09-12T03:55:52;21.00;99.90
12413;DHT22;13877;18.896;-99.222;2023-09-12T03:58:19;21.10;99.90
12413;DHT22;13877;18.896;-99.222;2023-09-12T04:00:45;21.20;99.90
12413;DHT22;13877;18.896;-99.222;2023-09-12T04:03:12;21.00;99.90
12413;DHT22;13877;18.896;-99.222;2023-09-12T04:05:38;20.90;99.90
12413;DHT22;13877;18.896;-99.222;2023-09-12T04:08:05;21.00;99.90
12413;DHT22;13877;18.896;-99.222;2023-09-12T04:10:31;21.10;99.90
12413;DHT22;13877;18.896;-99.222;2023-09-12T04:12:58;21.20;99.90
12413;DHT22;13877;18.896;-99.222;2023-09-12T04:15:24;21.30;99.90
12413;DHT22;13877;18.896;-99.222;2023-09-12T04:17:51;21.40;99.90
12413;DHT22;13877;18.896;-99.222;2023-09-12T04:20:17;21.40;99.90
12413;DHT22;13877;18.896;-99.222;2023-09-12T04:22:44;21.50;99.90
12413;DHT22;13877;18.896;-99.222;2023-09-12T04:25:11;21.60;99.90
12413;DHT22;13877;18.896;-99.222;2023-09-12T04:27:37;21.70;99.90
12413;DHT22;13877;18.896;-99.222;2023-09-12T04:30:04;21.80;99.90
12413;DHT22;13877;18.896;-99.222;2023-09-12T04:32:31;21.80;99.90
12413;DHT22;13877;18.896;-99.222;2023-09-12T04:34:58;21.90;99.90
12413;DHT22;13877;18.896;-99.222;2023-09-12T04:37:24;21.90;99.90
12413;DHT22;13877;18.896;-99.222;2023-09-12T04:39:51;21.90;99.90
12413;DHT22;13877;18.896;-99.222;2023-09-12T04:42:17;21.80;99.90
12413;DHT22;13877;18.896;-99.222;2023-09-12T04:44:44;21.90;99.90
12413;DHT22;13877;18.896;-99.222;2023-09-12T04:47:10;21.80;99.90
12413;DHT22;13877;18.896;-99.222;2023-09-12T04:49:37;21.80;99.90
12413;DHT22;13877;18.896;-99.222;2023-09-12T04:52:03;21.80;99.90
12413;DHT22;13877;18.896;-99.222;2023-09-12T04:54:29;21.80;99.90
12413;DHT22;13877;18.896;-99.222;2023-09-12T04:56:56;21.70;99.90
12413;DHT22;13877;18.896;-99.222;2023-09-12T04:59:22;21.70;99.90
12413;DHT22;13877;18.896;-99.222;2023-09-12T05:01:49;21.70;99.90
12413;DHT22;13877;18.896;-99.222;2023-09-12T05:04:17;21.70;99.90
12413;DHT22;13877;18.896;-99.222;2023-09-12T05:06:44;21.70;99.90
12413;DHT22;13877;18.896;-99.222;2023-09-12T05:09:10;21.70;99.90
12413;DHT22;13877;18.896;-99.222;2023-09-12T05:11:37;21.60;99.90
12413;DHT22;13877;18.896;-99.222;2023-09-12T05:14:03;21.60;99.90
12413;DHT22;13877;18.896;-99.222;2023-09-12T05:16:30;21.60;99.90
12413;DHT22;13877;18.896;-99.222;2023-09-12T05:18:56;21.50;99.90
12413;DHT22;13877;18.896;-99.222;2023-09-12T05:21:23;21.30;99.90
12413;DHT22;13877;18.896;-99.222;2023-09-12T05:23:49;21.20;99.90
12413;DHT22;13877;18.896;-99.222;2023-09-12T05:26:16;21.20;99.90
12413;DHT22;13877;18.896;-99.222;2023-09-12T05:28:42;21.20;99.90
12413;DHT22;13877;18.896;-99.222;2023-09-12T05:31:09;21.20;99.90
12413;DHT22;13877;18.896;-99.222;2023-09-12T05:33:36;21.10;99.90
12413;DHT22;13877;18.896;-99.222;2023-09-12T05:36:02;21.00;99.90
12413;DHT22;13877;18.896;-99.222;2023-09-12T05:38:29;21.10;99.90
12413;DHT22;13877;18.896;-99.222;2023-09-12T05:40:56;21.10;99.90
12413;DHT22;13877;18.896;-99.222;2023-09-12T05:43:22;21.20;99.90
12413;DHT22;13877;18.896;-99.222;2023-09-12T05:45:49;21.30;99.90
12413;DHT22;13877;18.896;-99.222;2023-09-12T05:48:15;21.30;99.90
12413;DHT22;13877;18.896;-99.222;2023-09-12T05:50:42;21.40;99.90
12413;DHT22;13877;18.896;-99.222;2023-09-12T05:53:08;21.40;99.90
12413;DHT22;13877;18.896;-99.222;2023-09-12T05:55:35;21.50;99.90
12413;DHT22;13877;18.896;-99.222;2023-09-12T05:58:02;21.50;99.90
12413;DHT22;13877;18.896;-99.222;2023-09-12T06:00:33;21.60;99.90
12413;DHT22;13877;18.896;-99.222;2023-09-12T06:03:00;21.70;99.90
12413;DHT22;13877;18.896;-99.222;2023-09-12T06:05:27;21.80;99.90
12413;DHT22;13877;18.896;-99.222;2023-09-12T06:07:53;21.80;99.90
12413;DHT22;13877;18.896;-99.222;2023-09-12T06:10:20;21.80;99.90
12413;DHT22;13877;18.896;-99.222;2023-09-12T06:12:46;21.80;99.90
12413;DHT22;13877;18.896;-99.222;2023-09-12T06:15:12;21.90;99.90
12413;DHT22;13877;18.896;-99.222;2023-09-12T06:17:39;21.90;99.90
12413;DHT22;13877;18.896;-99.222;2023-09-12T06:20:05;21.80;99.90
12413;DHT22;13877;18.896;-99.222;2023-09-12T06:22:32;21.80;99.90
12413;DHT22;13877;18.896;-99.222;2023-09-12T06:24:58;21.90;99.90
12413;DHT22;13877;18.896;-99.222;2023-09-12T06:27:24;21.90;99.90
12413;DHT22;13877;18.896;-99.222;2023-09-12T06:29:51;21.80;99.90
12413;DHT22;13877;18.896;-99.222;2023-09-12T06:32:18;21.70;99.90
12413;DHT22;13877;18.896;-99.222;2023-09-12T06:34:44;21.80;99.90
12413;DHT22;13877;18.896;-99.222;2023-09-12T06:37:11;21.90;99.90
12413;DHT22;13877;18.896;-99.222;2023-09-12T06:39:37;22.00;99.90
12413;DHT22;13877;18.896;-99.222;2023-09-12T06:42:04;22.10;99.90
12413;DHT22;13877;18.896;-99.222;2023-09-12T06:44:30;21.90;99.90
12413;DHT22;13877;18.896;-99.222;2023-09-12T06:46:57;21.90;99.90
12413;DHT22;13877;18.896;-99.222;2023-09-12T06:49:23;21.80;99.90
12413;DHT22;13877;18.896;-99.222;2023-09-12T06:51:49;21.70;99.90
12413;DHT22;13877;18.896;-99.222;2023-09-12T06:54:16;21.80;99.90
12413;DHT22;13877;18.896;-99.222;2023-09-12T06:56:42;21.80;99.90
12413;DHT22;13877;18.896;-99.222;2023-09-12T06:59:09;21.80;99.90
12413;DHT22;13877;18.896;-99.222;2023-09-12T07:01:35;21.80;99.90
12413;DHT22;13877;18.896;-99.222;2023-09-12T07:04:03;21.80;99.90
12413;DHT22;13877;18.896;-99.222;2023-09-12T07:06:29;21.80;99.90
12413;DHT22;13877;18.896;-99.222;2023-09-12T07:08:56;21.80;99.90
12413;DHT22;13877;18.896;-99.222;2023-09-12T07:11:22;21.60;99.90
12413;DHT22;13877;18.896;-99.222;2023-09-12T07:13:50;21.60;99.90
12413;DHT22;13877;18.896;-99.222;2023-09-12T07:16:16;21.50;99.90
12413;DHT22;13877;18.896;-99.222;2023-09-12T07:18:43;21.70;99.90
12413;DHT22;13877;18.896;-99.222;2023-09-12T07:21:09;21.80;99.90
12413;DHT22;13877;18.896;-99.222;2023-09-12T07:23:38;21.80;99.90
12413;DHT22;13877;18.896;-99.222;2023-09-12T07:26:04;21.70;99.90
12413;DHT22;13877;18.896;-99.222;2023-09-12T07:28:31;21.60;99.90
12413;DHT22;13877;18.896;-99.222;2023-09-12T07:30:57;21.60;99.90
12413;DHT22;13877;18.896;-99.222;2023-09-12T07:33:24;21.60;99.90
12413;DHT22;13877;18.896;-99.222;2023-09-12T07:35:53;21.70;99.90
12413;DHT22;13877;18.896;-99.222;2023-09-12T07:38:20;21.90;99.90
12413;DHT22;13877;18.896;-99.222;2023-09-12T07:40:47;22.10;99.90
12413;DHT22;13877;18.896;-99.222;2023-09-12T07:43:13;22.00;99.90
12413;DHT22;13877;18.896;-99.222;2023-09-12T07:45:40;21.90;99.90
12413;DHT22;13877;18.896;-99.222;2023-09-12T07:48:07;21.90;99.90
12413;DHT22;13877;18.896;-99.222;2023-09-12T07:50:33;21.90;99.90
12413;DHT22;13877;18.896;-99.222;2023-09-12T07:53:00;21.90;99.90
12413;DHT22;13877;18.896;-99.222;2023-09-12T07:55:26;21.80;99.90
12413;DHT22;13877;18.896;-99.222;2023-09-12T07:57:56;21.70;99.90
12413;DHT22;13877;18.896;-99.222;2023-09-12T08:00:23;21.60;99.90
12413;DHT22;13877;18.896;-99.222;2023-09-12T08:02:50;21.50;99.90
12413;DHT22;13877;18.896;-99.222;2023-09-12T08:05:16;21.50;99.90
12413;DHT22;13877;18.896;-99.222;2023-09-12T08:07:45;21.40;99.90
12413;DHT22;13877;18.896;-99.222;2023-09-12T08:10:11;21.30;99.90
12413;DHT22;13877;18.896;-99.222;2023-09-12T08:12:37;21.20;99.90
12413;DHT22;13877;18.896;-99.222;2023-09-12T08:15:07;21.20;99.90
12413;DHT22;13877;18.896;-99.222;2023-09-12T08:17:34;21.10;99.90
12413;DHT22;13877;18.896;-99.222;2023-09-12T08:20:00;21.30;99.90
12413;DHT22;13877;18.896;-99.222;2023-09-12T08:22:27;21.30;99.90
12413;DHT22;13877;18.896;-99.222;2023-09-12T08:24:53;21.30;99.90
12413;DHT22;13877;18.896;-99.222;2023-09-12T08:27:20;21.30;99.90
12413;DHT22;13877;18.896;-99.222;2023-09-12T08:29:46;21.30;99.90
12413;DHT22;13877;18.896;-99.222;2023-09-12T08:32:14;21.30;99.90
12413;DHT22;13877;18.896;-99.222;2023-09-12T08:34:40;21.20;99.90
12413;DHT22;13877;18.896;-99.222;2023-09-12T08:37:07;21.10;99.90
12413;DHT22;13877;18.896;-99.222;2023-09-12T08:39:43;21.10;99.90
12413;DHT22;13877;18.896;-99.222;2023-09-12T08:42:13;21.00;99.90
12413;DHT22;13877;18.896;-99.222;2023-09-12T08:44:40;21.00;99.90
12413;DHT22;13877;18.896;-99.222;2023-09-12T08:47:11;21.00;99.90
12413;DHT22;13877;18.896;-99.222;2023-09-12T08:49:38;20.90;99.90
12413;DHT22;13877;18.896;-99.222;2023-09-12T08:52:04;20.90;99.90
12413;DHT22;13877;18.896;-99.222;2023-09-12T08:54:34;20.80;99.90
12413;DHT22;13877;18.896;-99.222;2023-09-12T08:57:04;20.80;99.90
12413;DHT22;13877;18.896;-99.222;2023-09-12T08:59:31;20.70;99.90
12413;DHT22;13877;18.896;-99.222;2023-09-12T09:01:58;20.60;99.90
12413;DHT22;13877;18.896;-99.222;2023-09-12T09:04:25;20.60;99.90
12413;DHT22;13877;18.896;-99.222;2023-09-12T09:06:55;20.60;99.90
12413;DHT22;13877;18.896;-99.222;2023-09-12T09:09:23;20.50;99.90
12413;DHT22;13877;18.896;-99.222;2023-09-12T09:11:54;20.40;99.90
12413;DHT22;13877;18.896;-99.222;2023-09-12T09:14:21;20.30;99.90
12413;DHT22;13877;18.896;-99.222;2023-09-12T09:16:48;20.50;99.90
12413;DHT22;13877;18.896;-99.222;2023-09-12T09:19:15;20.40;99.90
12413;DHT22;13877;18.896;-99.222;2023-09-12T09:21:42;20.30;99.90
12413;DHT22;13877;18.896;-99.222;2023-09-12T09:24:09;20.20;99.90
12413;DHT22;13877;18.896;-99.222;2023-09-12T09:26:43;20.10;99.90
12413;DHT22;13877;18.896;-99.222;2023-09-12T09:29:12;20.10;99.90
12413;DHT22;13877;18.896;-99.222;2023-09-12T09:31:43;20.00;99.90
12413;DHT22;13877;18.896;-99.222;2023-09-12T09:34:13;20.00;99.90
12413;DHT22;13877;18.896;-99.222;2023-09-12T09:36:43;20.00;99.90
12413;DHT22;13877;18.896;-99.222;2023-09-12T09:39:10;19.90;99.90
12413;DHT22;13877;18.896;-99.222;2023-09-12T09:41:37;19.70;99.90
12413;DHT22;13877;18.896;-99.222;2023-09-12T09:44:05;19.60;99.90
12413;DHT22;13877;18.896;-99.222;2023-09-12T09:46:31;19.50;99.90
12413;DHT22;13877;18.896;-99.222;2023-09-12T09:48:59;19.50;99.90
12413;DHT22;13877;18.896;-99.222;2023-09-12T09:51:26;19.60;99.90
12413;DHT22;13877;18.896;-99.222;2023-09-12T09:53:52;19.80;99.90
12413;DHT22;13877;18.896;-99.222;2023-09-12T09:56:24;19.80;99.90
12413;DHT22;13877;18.896;-99.222;2023-09-12T09:58:54;19.70;99.90
12413;DHT22;13877;18.896;-99.222;2023-09-12T10:01:22;19.60;99.90
12413;DHT22;13877;18.896;-99.222;2023-09-12T10:03:49;19.60;99.90
12413;DHT22;13877;18.896;-99.222;2023-09-12T10:06:16;19.50;99.90
12413;DHT22;13877;18.896;-99.222;2023-09-12T10:08:49;19.50;99.90
12413;DHT22;13877;18.896;-99.222;2023-09-12T10:11:17;19.50;99.90
12413;DHT22;13877;18.896;-99.222;2023-09-12T10:13:49;19.60;99.90
12413;DHT22;13877;18.896;-99.222;2023-09-12T10:16:16;19.70;99.90
12413;DHT22;13877;18.896;-99.222;2023-09-12T10:18:46;19.80;99.90
12413;DHT22;13877;18.896;-99.222;2023-09-12T10:21:17;19.80;99.90
12413;DHT22;13877;18.896;-99.222;2023-09-12T10:23:45;19.80;99.90
12413;DHT22;13877;18.896;-99.222;2023-09-12T10:26:16;19.70;99.90
12413;DHT22;13877;18.896;-99.222;2023-09-12T10:28:43;19.60;99.90
12413;DHT22;13877;18.896;-99.222;2023-09-12T10:31:11;19.70;99.90
12413;DHT22;13877;18.896;-99.222;2023-09-12T10:33:38;19.80;99.90
12413;DHT22;13877;18.896;-99.222;2023-09-12T10:36:05;19.90;99.90
12413;DHT22;13877;18.896;-99.222;2023-09-12T10:38:32;19.80;99.90
12413;DHT22;13877;18.896;-99.222;2023-09-12T10:41:00;19.90;99.90
12413;DHT22;13877;18.896;-99.222;2023-09-12T10:43:29;19.80;99.90
12413;DHT22;13877;18.896;-99.222;2023-09-12T10:45:55;19.80;99.90
12413;DHT22;13877;18.896;-99.222;2023-09-12T10:48:22;19.80;99.90
12413;DHT22;13877;18.896;-99.222;2023-09-12T10:50:49;19.80;99.90
12413;DHT22;13877;18.896;-99.222;2023-09-12T10:53:15;19.70;99.90
12413;DHT22;13877;18.896;-99.222;2023-09-12T10:55:42;19.70;99.90
12413;DHT22;13877;18.896;-99.222;2023-09-12T10:58:09;19.60;99.90
12413;DHT22;13877;18.896;-99.222;2023-09-12T11:00:36;19.60;99.90
12413;DHT22;13877;18.896;-99.222;2023-09-12T11:05:52;19.70;99.90
12413;DHT22;13877;18.896;-99.222;2023-09-12T11:08:19;19.60;99.90
12413;DHT22;13877;18.896;-99.222;2023-09-12T11:11:16;19.50;99.90
12413;DHT22;13877;18.896;-99.222;2023-09-12T11:13:37;19.50;99.90
12413;DHT22;13877;18.896;-99.222;2023-09-12T11:16:15;19.40;99.90
12413;DHT22;13877;18.896;-99.222;2023-09-12T11:21:32;19.40;99.90
12413;DHT22;13877;18.896;-99.222;2023-09-12T11:23:59;19.30;99.90
12413;DHT22;13877;18.896;-99.222;2023-09-12T11:26:26;19.20;99.90
12413;DHT22;13877;18.896;-99.222;2023-09-12T11:28:52;19.30;99.90
12413;DHT22;13877;18.896;-99.222;2023-09-12T11:34:09;19.30;99.90
12413;DHT22;13877;18.896;-99.222;2023-09-12T11:36:41;19.20;99.90
12413;DHT22;13877;18.896;-99.222;2023-09-12T11:39:41;19.20;99.90
12413;DHT22;13877;18.896;-99.222;2023-09-12T11:42:01;19.20;99.90
12413;DHT22;13877;18.896;-99.222;2023-09-12T11:44:28;19.10;99.90
12413;DHT22;13877;18.896;-99.222;2023-09-12T11:46:59;19.10;99.90
12413;DHT22;13877;18.896;-99.222;2023-09-12T11:49:38;19.00;99.90
12413;DHT22;13877;18.896;-99.222;2023-09-12T11:52:12;19.00;99.90
12413;DHT22;13877;18.896;-99.222;2023-09-12T11:54:43;19.10;99.90
12413;DHT22;13877;18.896;-99.222;2023-09-12T11:57:14;19.10;99.90
12413;DHT22;13877;18.896;-99.222;2023-09-12T11:59:42;19.10;99.90
12413;DHT22;13877;18.896;-99.222;2023-09-12T12:02:13;19.10;99.90
12413;DHT22;13877;18.896;-99.222;2023-09-12T12:04:40;19.00;99.90
12413;DHT22;13877;18.896;-99.222;2023-09-12T12:07:07;19.10;99.90
12413;DHT22;13877;18.896;-99.222;2023-09-12T12:09:34;19.00;99.90
12413;DHT22;13877;18.896;-99.222;2023-09-12T12:12:04;19.00;99.90
12413;DHT22;13877;18.896;-99.222;2023-09-12T12:14:35;18.90;99.90
12413;DHT22;13877;18.896;-99.222;2023-09-12T12:17:09;18.90;99.90
12413;DHT22;13877;18.896;-99.222;2023-09-12T12:19:36;18.90;99.90
12413;DHT22;13877;18.896;-99.222;2023-09-12T12:22:03;18.90;99.90
12413;DHT22;13877;18.896;-99.222;2023-09-12T12:27:05;18.80;99.90
12413;DHT22;13877;18.896;-99.222;2023-09-12T12:29:31;18.70;99.90
12413;DHT22;13877;18.896;-99.222;2023-09-12T12:32:02;18.70;99.90
12413;DHT22;13877;18.896;-99.222;2023-09-12T12:34:31;18.70;99.90
12413;DHT22;13877;18.896;-99.222;2023-09-12T12:36:58;18.70;99.90
12413;DHT22;13877;18.896;-99.222;2023-09-12T12:39:24;18.80;99.90
12413;DHT22;13877;18.896;-99.222;2023-09-12T12:41:52;18.90;99.90
12413;DHT22;13877;18.896;-99.222;2023-09-12T12:44:19;19.00;99.90
12413;DHT22;13877;18.896;-99.222;2023-09-12T12:46:49;19.10;99.90
12413;DHT22;13877;18.896;-99.222;2023-09-12T12:49:16;19.20;99.90
12413;DHT22;13877;18.896;-99.222;2023-09-12T12:51:43;19.30;99.90
12413;DHT22;13877;18.896;-99.222;2023-09-12T12:54:10;19.30;99.90
12413;DHT22;13877;18.896;-99.222;2023-09-12T12:56:37;19.30;99.90
12413;DHT22;13877;18.896;-99.222;2023-09-12T12:59:05;19.40;99.90
12413;DHT22;13877;18.896;-99.222;2023-09-12T13:01:36;19.40;99.90
12413;DHT22;13877;18.896;-99.222;2023-09-12T13:04:07;19.30;99.90
12413;DHT22;13877;18.896;-99.222;2023-09-12T13:06:34;19.20;99.90
12413;DHT22;13877;18.896;-99.222;2023-09-12T13:09:04;19.20;99.90
12413;DHT22;13877;18.896;-99.222;2023-09-12T13:11:31;19.10;99.90
12413;DHT22;13877;18.896;-99.222;2023-09-12T13:14:01;19.10;99.90
12413;DHT22;13877;18.896;-99.222;2023-09-12T13:16:29;19.20;99.90
12413;DHT22;13877;18.896;-99.222;2023-09-12T13:18:55;19.40;99.90
12413;DHT22;13877;18.896;-99.222;2023-09-12T13:21:22;19.80;99.90
12413;DHT22;13877;18.896;-99.222;2023-09-12T13:23:49;20.10;99.90
12413;DHT22;13877;18.896;-99.222;2023-09-12T13:26:15;20.30;99.90
12413;DHT22;13877;18.896;-99.222;2023-09-12T13:28:42;20.60;99.90
12413;DHT22;13877;18.896;-99.222;2023-09-12T13:31:09;20.90;99.90
12413;DHT22;13877;18.896;-99.222;2023-09-12T13:33:36;21.10;99.90
12413;DHT22;13877;18.896;-99.222;2023-09-12T13:36:02;21.30;99.90
12413;DHT22;13877;18.896;-99.222;2023-09-12T13:38:29;21.40;99.90
12413;DHT22;13877;18.896;-99.222;2023-09-12T13:40:56;21.50;99.90
12413;DHT22;13877;18.896;-99.222;2023-09-12T13:43:23;21.80;99.90
12413;DHT22;13877;18.896;-99.222;2023-09-12T13:45:49;22.00;99.90
12413;DHT22;13877;18.896;-99.222;2023-09-12T13:48:16;22.40;99.90
12413;DHT22;13877;18.896;-99.222;2023-09-12T13:50:44;22.60;99.90
12413;DHT22;13877;18.896;-99.222;2023-09-12T13:53:11;22.80;99.90
12413;DHT22;13877;18.896;-99.222;2023-09-12T13:55:37;22.80;99.90
12413;DHT22;13877;18.896;-99.222;2023-09-12T13:58:05;22.80;99.90
12413;DHT22;13877;18.896;-99.222;2023-09-12T14:00:33;23.10;99.90
12413;DHT22;13877;18.896;-99.222;2023-09-12T14:03:02;23.40;99.90
12413;DHT22;13877;18.896;-99.222;2023-09-12T14:05:46;23.30;99.90
12413;DHT22;13877;18.896;-99.222;2023-09-12T14:08:12;23.00;99.90
12413;DHT22;13877;18.896;-99.222;2023-09-12T14:10:39;22.70;99.90
12413;DHT22;13877;18.896;-99.222;2023-09-12T14:13:06;22.80;99.90
12413;DHT22;13877;18.896;-99.222;2023-09-12T14:15:33;23.00;99.90
12413;DHT22;13877;18.896;-99.222;2023-09-12T14:18:00;23.20;99.90
12413;DHT22;13877;18.896;-99.222;2023-09-12T14:20:26;23.50;99.90
12413;DHT22;13877;18.896;-99.222;2023-09-12T14:22:53;23.40;99.90
12413;DHT22;13877;18.896;-99.222;2023-09-12T14:25:20;23.00;99.90
12413;DHT22;13877;18.896;-99.222;2023-09-12T14:27:47;23.30;99.90
12413;DHT22;13877;18.896;-99.222;2023-09-12T14:30:13;23.60;99.90
12413;DHT22;13877;18.896;-99.222;2023-09-12T14:32:40;23.90;99.80
12413;DHT22;13877;18.896;-99.222;2023-09-12T14:35:07;24.30;99.90
12413;DHT22;13877;18.896;-99.222;2023-09-12T14:37:34;24.40;99.50
12413;DHT22;13877;18.896;-99.222;2023-09-12T14:40:03;24.30;98.40
12413;DHT22;13877;18.896;-99.222;2023-09-12T14:42:30;24.90;99.10
12413;DHT22;13877;18.896;-99.222;2023-09-12T14:44:57;24.60;98.70
12413;DHT22;13877;18.896;-99.222;2023-09-12T14:47:24;24.80;98.30
12413;DHT22;13877;18.896;-99.222;2023-09-12T14:49:53;25.30;97.70
12413;DHT22;13877;18.896;-99.222;2023-09-12T14:52:20;25.40;98.20
12413;DHT22;13877;18.896;-99.222;2023-09-12T14:54:47;25.30;97.00
12413;DHT22;13877;18.896;-99.222;2023-09-12T14:57:14;25.20;97.60
12413;DHT22;13877;18.896;-99.222;2023-09-12T14:59:41;24.60;97.00
12413;DHT22;13877;18.896;-99.222;2023-09-12T15:02:07;25.20;97.20
12413;DHT22;13877;18.896;-99.222;2023-09-12T15:04:34;25.60;95.90
12413;DHT22;13877;18.896;-99.222;2023-09-12T15:07:01;25.80;96.10
12413;DHT22;13877;18.896;-99.222;2023-09-12T15:09:27;25.60;95.00
12413;DHT22;13877;18.896;-99.222;2023-09-12T15:11:54;25.40;94.50
12413;DHT22;13877;18.896;-99.222;2023-09-12T15:14:21;25.50;95.20
12413;DHT22;13877;18.896;-99.222;2023-09-12T15:16:49;25.60;94.30